Time;durP1;ratioP1;P1;durP2;ratioP2;P2;SDS_P1;SDS_P2;PMS_P1;PMS_P2;Temp;Humidity;BMP_temperature;BMP_pressure;BME280_temperature;BME280_humidity;BME280_pressure;Samples;Min_cycle;Max_cycle;Signal;HPM_P1;HPM_P2
2021/03/17 00:01:10;;;;;;;;;;;;;;;14.12;47.63;102689.56;5074515;28;19916;-86
2021/03/17 00:03:35;;;;;;;;;;;;;;;13.86;48.11;102679.53;5076066;28;19913;-86
2021/03/17 00:06:01;;;;;;;;;;;;;;;13.24;50.19;102688.63;5074744;28;19939;-87
2021/03/17 00:08:26;;;;;;;;;;;;;;;13.44;49.84;102686.25;5075154;28;19917;-85
2021/03/17 00:10:52;;;;;;;;;;;;;;;13.70;49.15;102678.25;5074459;28;20275;-85
2021/03/17 00:13:18;;;;;;;;;;;;;;;13.42;49.62;102682.72;5074901;28;19917;-84
2021/03/17 00:15:44;;;;;;;;;;;;;;;13.70;49.28;102690.00;5074469;28;19916;-85
2021/03/17 00:18:10;;;;;;;;;;;;;;;13.35;49.28;102680.22;5075623;28;19927;-86
2021/03/17 00:20:36;;;;;;;;;;;;;;;14.11;47.79;102693.22;5074397;28;19916;-86
2021/03/17 00:23:01;;;;;;;;;;;;;;;14.15;47.54;102689.47;5074726;28;19924;-88
2021/03/17 00:25:28;;;;;;;;;;;;;;;13.85;48.04;102695.91;5075874;28;19930;-85
2021/03/17 00:27:53;;;;;;;;;;;;;;;13.59;48.88;102701.22;5074862;28;19925;-86
2021/03/17 00:30:18;;;;;;;;;;;;;;;13.38;49.29;102700.03;5077152;28;20053;-84
2021/03/17 00:32:44;;;;;;;;;;;;;;;13.74;48.43;102713.47;5078218;28;19999;-86
2021/03/17 00:35:09;;;;;;;;;;;;;;;13.67;48.87;102708.25;5079857;28;19917;-86
2021/03/17 00:37:34;;;;;;;;;;;;;;;13.79;48.52;102711.47;5078316;28;19923;-86
2021/03/17 00:39:59;;;;;;;;;;;;;;;13.27;50.10;102716.63;5079322;28;19984;-85
2021/03/17 00:42:25;;;;;;;;;;;;;;;13.05;50.11;102710.91;5078109;28;19967;-85
2021/03/17 00:44:50;;;;;;;;;;;;;;;13.54;49.46;102722.25;5078184;28;19916;-86
2021/03/17 00:47:15;;;;;;;;;;;;;;;12.36;51.69;102729.91;5079394;28;19917;-86
2021/03/17 00:49:40;;;;;;;;;;;;;;;13.30;49.97;102732.84;5078012;28;20317;-86
2021/03/17 00:52:05;;;;;;;;;;;;;;;13.50;49.05;102734.13;5079126;28;20006;-86
2021/03/17 00:54:31;;;;;;;;;;;;;;;13.30;50.10;102732.84;5078969;28;19921;-85
2021/03/17 00:56:56;;;;;;;;;;;;;;;13.16;50.00;102736.91;5079220;28;19928;-87
2021/03/17 00:59:21;;;;;;;;;;;;;;;13.44;49.05;102739.75;5077560;28;19946;-85
2021/03/17 01:01:46;;;;;;;;;;;;;;;13.37;49.86;102728.16;5077559;28;19928;-86
2021/03/17 01:04:12;;;;;;;;;;;;;;;13.18;50.28;102732.28;5077791;28;20293;-85
2021/03/17 01:06:37;;;;;;;;;;;;;;;12.68;51.14;102730.94;5077614;28;20003;-86
2021/03/17 01:09:03;;;;;;;;;;;;;;;12.66;50.92;102729.19;5078347;28;19940;-86
2021/03/17 01:11:28;;;;;;;;;;;;;;;12.88;50.62;102732.25;5077761;28;20011;-85
2021/03/17 01:13:53;;;;;;;;;;;;;;;12.71;50.83;102740.81;5077522;28;19970;-85
2021/03/17 01:16:18;;;;;;;;;;;;;;;12.32;51.78;102738.16;5077244;28;19969;-86
2021/03/17 01:18:44;;;;;;;;;;;;;;;12.47;51.71;102750.47;5079479;28;19970;-85
2021/03/17 01:21:09;;;;;;;;;;;;;;;12.20;52.42;102745.69;5079119;28;19920;-86
2021/03/17 01:23:34;;;;;;;;;;;;;;;13.21;49.25;102749.44;5076844;28;19939;-85
2021/03/17 01:25:59;;;;;;;;;;;;;;;12.99;50.15;102743.69;5076176;28;20366;-87
2021/03/17 01:28:25;;;;;;;;;;;;;;;12.87;49.92;102749.47;5076970;28;20370;-85
2021/03/17 01:30:51;;;;;;;;;;;;;;;11.86;53.67;102753.69;5077866;28;19924;-85
2021/03/17 01:33:17;;;;;;;;;;;;;;;12.33;52.03;102743.56;5076146;28;19916;-86
2021/03/17 01:35:44;;;;;;;;;;;;;;;13.16;50.29;102747.75;5076381;28;19917;-86
2021/03/17 01:38:09;;;;;;;;;;;;;;;13.08;49.60;102756.13;5076845;28;20377;-86
2021/03/17 01:40:37;;;;;;;;;;;;;;;12.90;50.21;102752.09;5077959;28;19935;-86
2021/03/17 01:43:02;;;;;;;;;;;;;;;12.80;50.31;102748.72;5076872;28;19963;-87
2021/03/17 01:45:27;;;;;;;;;;;;;;;13.32;49.12;102746.41;5076918;28;19920;-85
2021/03/17 01:47:53;;;;;;;;;;;;;;;13.37;49.38;102752.63;5077813;28;19920;-85
2021/03/17 01:50:23;;;;;;;;;;;;;;;13.50;48.74;102754.97;5077956;28;20297;-86
2021/03/17 01:52:48;;;;;;;;;;;;;;;12.94;50.22;102756.53;5077553;28;19927;-85
2021/03/17 01:55:15;;;;;;;;;;;;;;;12.34;51.87;102749.91;5078058;28;19916;-85
2021/03/17 01:57:40;;;;;;;;;;;;;;;12.09;52.39;102750.47;5077193;28;19927;-85
2021/03/17 02:00:10;;;;;;;;;;;;;;;13.15;49.84;102733.28;5076946;28;19921;-86
2021/03/17 02:02:36;;;;;;;;;;;;;;;13.25;49.77;102733.91;5076212;28;19916;-84
2021/03/17 02:05:04;;;;;;;;;;;;;;;13.04;49.59;102729.97;5077908;28;19916;-86
2021/03/17 02:07:29;;;;;;;;;;;;;;;13.24;49.52;102721.25;5076498;28;19917;-85
2021/03/17 02:09:54;;;;;;;;;;;;;;;13.67;48.21;102709.13;5076042;28;20328;-87
2021/03/17 02:12:25;;;;;;;;;;;;;;;13.95;47.59;102713.69;5076383;28;20431;-85
2021/03/17 02:15:11;;;;;;;;;;;;;;;14.13;46.66;102704.97;5076579;28;19962;-87
2021/03/17 02:17:39;;;;;;;;;;;;;;;13.58;48.61;102704.00;5076732;28;19935;-85
2021/03/17 02:20:13;;;;;;;;;;;;;;;13.28;48.95;102712.97;5076176;28;19917;-85
2021/03/17 02:22:50;;;;;;;;;;;;;;;13.40;48.97;102714.47;5077467;28;20293;-86
2021/03/17 02:25:34;;;;;;;;;;;;;;;13.34;49.27;102716.50;5076467;28;20362;-85
2021/03/17 02:28:18;;;;;;;;;;;;;;;13.47;48.66;102713.34;5076311;28;19924;-86
2021/03/17 02:30:47;;;;;;;;;;;;;;;12.78;50.36;102709.84;5076247;28;19916;-86
2021/03/17 02:33:31;;;;;;;;;;;;;;;13.17;49.99;102709.69;5075791;28;19916;-86
2021/03/17 02:36:02;;;;;;;;;;;;;;;13.10;49.60;102708.97;5076714;28;19938;-84
2021/03/17 02:38:28;;;;;;;;;;;;;;;12.91;50.39;102705.00;5076816;28;19917;-85
2021/03/17 02:40:56;;;;;;;;;;;;;;;12.65;51.00;102702.97;5075754;28;19920;-86
2021/03/17 02:43:23;;;;;;;;;;;;;;;12.45;52.20;102698.06;5076405;28;20429;-87
2021/03/17 02:45:55;;;;;;;;;;;;;;;12.33;52.57;102700.13;5075534;28;19974;-86
2021/03/17 02:48:23;;;;;;;;;;;;;;;12.00;53.19;102691.94;5075891;28;19917;-85
2021/03/17 02:50:50;;;;;;;;;;;;;;;12.41;52.28;102698.13;5075539;28;19928;-85
2021/03/17 02:53:18;;;;;;;;;;;;;;;13.00;50.61;102696.56;5075876;28;19916;-85
2021/03/17 02:55:45;;;;;;;;;;;;;;;12.67;51.28;102699.28;5076741;28;19923;-86
2021/03/17 02:58:11;;;;;;;;;;;;;;;13.07;50.44;102703.63;5075649;28;19920;-85
2021/03/17 03:00:37;;;;;;;;;;;;;;;12.31;52.36;102712.00;5076396;28;20003;-85
2021/03/17 03:03:03;;;;;;;;;;;;;;;12.64;51.58;102712.06;5075040;28;19916;-87
2021/03/17 03:05:29;;;;;;;;;;;;;;;12.69;51.46;102707.38;5075295;28;19920;-87
2021/03/17 03:07:55;;;;;;;;;;;;;;;12.77;51.70;102703.53;5075175;28;19917;-87
2021/03/17 03:10:22;;;;;;;;;;;;;;;12.83;51.67;102698.84;5076751;28;19917;-86
2021/03/17 03:12:48;;;;;;;;;;;;;;;12.10;53.67;102703.44;5075075;28;19923;-84
2021/03/17 03:15:14;;;;;;;;;;;;;;;12.79;51.56;102698.06;5074939;28;20384;-86
2021/03/17 03:17:40;;;;;;;;;;;;;;;12.98;51.24;102702.97;5074845;28;19921;-85
2021/03/17 03:20:07;;;;;;;;;;;;;;;13.01;51.35;102695.63;5075067;28;19942;-85
2021/03/17 03:22:32;;;;;;;;;;;;;;;13.22;50.63;102698.66;5076096;28;19927;-87
2021/03/17 03:24:58;;;;;;;;;;;;;;;13.43;50.25;102689.03;5076696;28;20023;-87
2021/03/17 03:27:24;;;;;;;;;;;;;;;13.23;50.33;102689.59;5075524;28;19921;-88
2021/03/17 03:29:49;;;;;;;;;;;;;;;12.70;52.38;102692.88;5075888;28;20025;-86
2021/03/17 03:32:14;;;;;;;;;;;;;;;12.73;52.88;102693.69;5075441;28;20242;-85
2021/03/17 03:34:40;;;;;;;;;;;;;;;13.06;51.61;102693.69;5076629;28;19920;-86
2021/03/17 03:37:06;;;;;;;;;;;;;;;12.91;52.04;102691.41;5075068;28;19916;-85
2021/03/17 03:39:31;;;;;;;;;;;;;;;11.80;55.13;102694.16;5075157;28;19917;-85
2021/03/17 03:41:56;;;;;;;;;;;;;;;11.21;57.36;102689.13;5074818;28;19923;-85
2021/03/17 03:44:21;;;;;;;;;;;;;;;11.63;56.63;102692.72;5076486;28;20259;-86
2021/03/17 03:46:47;;;;;;;;;;;;;;;11.62;57.01;102696.34;5075992;28;19917;-85
2021/03/17 03:49:12;;;;;;;;;;;;;;;11.65;56.50;102688.16;5074650;28;20208;-85
2021/03/17 03:51:40;;;;;;;;;;;;;;;12.42;54.25;102682.72;5075789;28;20028;-86
2021/03/17 03:54:08;;;;;;;;;;;;;;;11.79;55.86;102686.94;5074426;28;19923;-85
2021/03/17 03:56:47;;;;;;;;;;;;;;;13.01;52.40;102687.47;5074920;28;20421;-86
2021/03/17 03:59:19;;;;;;;;;;;;;;;12.38;54.11;102690.06;5071558;28;19920;-88
2021/03/17 04:01:47;;;;;;;;;;;;;;;12.70;53.43;102685.63;5075946;28;19916;-86
2021/03/17 04:04:19;;;;;;;;;;;;;;;12.22;54.37;102692.28;5077797;28;20305;-86
2021/03/17 04:06:49;;;;;;;;;;;;;;;12.96;52.63;102705.75;5078980;28;19916;-85
2021/03/17 04:09:15;;;;;;;;;;;;;;;12.72;53.22;102710.91;5078368;28;20011;-86
2021/03/17 04:11:41;;;;;;;;;;;;;;;12.22;54.15;102707.66;5078825;28;20353;-86
2021/03/17 04:14:08;;;;;;;;;;;;;;;12.87;52.70;102715.03;5078928;28;19948;-85
2021/03/17 04:16:33;;;;;;;;;;;;;;;12.81;52.89;102722.47;5078402;28;19927;-86
2021/03/17 04:18:59;;;;;;;;;;;;;;;12.69;53.24;102718.25;5078477;28;19921;-85
2021/03/17 04:21:26;;;;;;;;;;;;;;;12.93;52.86;102722.13;5079527;28;19916;-85
2021/03/17 04:23:54;;;;;;;;;;;;;;;12.71;52.75;102722.72;5078206;28;20045;-86
2021/03/17 04:26:20;;;;;;;;;;;;;;;12.64;53.02;102731.94;5077885;28;19924;-85
2021/03/17 04:28:46;;;;;;;;;;;;;;;13.29;51.13;102730.19;5077961;28;20007;-85
2021/03/17 04:31:12;;;;;;;;;;;;;;;13.30;51.40;102732.84;5078436;28;19916;-86
2021/03/17 04:33:38;;;;;;;;;;;;;;;13.26;52.13;102730.28;5078151;28;19921;-85
2021/03/17 04:36:04;;;;;;;;;;;;;;;13.09;52.37;102733.47;5077961;28;20416;-85
2021/03/17 04:38:30;;;;;;;;;;;;;;;12.32;54.36;102735.47;5079401;28;19924;-85
2021/03/17 04:40:56;;;;;;;;;;;;;;;12.71;53.95;102736.28;5078073;28;19916;-85
2021/03/17 04:43:22;;;;;;;;;;;;;;;12.67;53.43;102731.88;5078443;28;20072;-85
2021/03/17 04:45:48;;;;;;;;;;;;;;;12.22;55.41;102730.25;5078254;28;19962;-85
2021/03/17 04:48:13;;;;;;;;;;;;;;;12.82;53.40;102735.09;5079102;28;19923;-86
2021/03/17 04:50:39;;;;;;;;;;;;;;;12.39;54.39;102731.66;5079663;28;19956;-85
2021/03/17 04:53:05;;;;;;;;;;;;;;;12.20;55.28;102731.25;5080929;28;19916;-86
2021/03/17 04:55:30;;;;;;;;;;;;;;;13.19;52.10;102728.66;5079506;28;19916;-84
2021/03/17 04:57:57;;;;;;;;;;;;;;;13.16;52.34;102731.47;5077443;28;19927;-86
2021/03/17 05:00:23;;;;;;;;;;;;;;;12.58;53.90;102732.09;5077725;28;19920;-85
2021/03/17 05:02:54;;;;;;;;;;;;;;;12.79;52.97;102741.53;5077456;28;20004;-84
2021/03/17 05:05:19;;;;;;;;;;;;;;;12.79;53.07;102748.75;5077268;28;19923;-86
2021/03/17 05:07:45;;;;;;;;;;;;;;;13.06;53.19;102739.88;5078899;28;19916;-85
2021/03/17 05:10:11;;;;;;;;;;;;;;;13.42;51.51;102738.88;5077414;28;19916;-86
2021/03/17 05:12:37;;;;;;;;;;;;;;;13.60;51.10;102745.63;5077607;28;19955;-86
2021/03/17 05:15:04;;;;;;;;;;;;;;;13.92;50.42;102735.56;5077823;28;19921;-85
2021/03/17 05:17:32;;;;;;;;;;;;;;;14.25;49.06;102732.72;5077979;28;19924;-85
2021/03/17 05:19:57;;;;;;;;;;;;;;;14.20;49.38;102729.25;5077215;28;19963;-84
2021/03/17 05:22:22;;;;;;;;;;;;;;;13.70;50.59;102736.25;5076962;28;19916;-85
2021/03/17 05:24:48;;;;;;;;;;;;;;;13.58;50.69;102731.19;5077723;28;19931;-87
2021/03/17 05:27:19;;;;;;;;;;;;;;;13.54;50.93;102734.91;5077321;28;19972;-87
2021/03/17 05:29:45;;;;;;;;;;;;;;;13.25;51.61;102737.50;5076469;28;20326;-86
2021/03/17 05:32:11;;;;;;;;;;;;;;;13.45;51.00;102739.72;5077375;28;19917;-86
2021/03/17 05:34:48;;;;;;;;;;;;;;;13.58;50.86;102742.06;5077567;28;20006;-86
2021/03/17 05:37:13;;;;;;;;;;;;;;;14.22;48.67;102733.72;5077284;28;19999;-86
2021/03/17 05:39:38;;;;;;;;;;;;;;;13.36;50.80;102736.34;5076641;28;19951;-86
2021/03/17 05:42:04;;;;;;;;;;;;;;;13.37;50.22;102733.59;5076138;28;19913;-85
2021/03/17 05:44:29;;;;;;;;;;;;;;;13.50;50.17;102742.28;5075756;28;19970;-85
2021/03/17 05:46:54;;;;;;;;;;;;;;;13.76;49.29;102730.63;5077044;28;19917;-86
2021/03/17 05:49:20;;;;;;;;;;;;;;;14.28;48.29;102736.25;5077865;28;19949;-84
2021/03/17 05:51:46;;;;;;;;;;;;;;;14.17;48.00;102733.84;5076965;28;19921;-85
2021/03/17 05:54:11;;;;;;;;;;;;;;;13.87;49.42;102733.00;5076789;28;19916;-86
2021/03/17 05:56:37;;;;;;;;;;;;;;;14.34;47.51;102727.88;5076418;28;20358;-84
2021/03/17 05:59:03;;;;;;;;;;;;;;;14.03;48.50;102727.09;5076843;28;19931;-85
2021/03/17 06:01:28;;;;;;;;;;;;;;;13.05;51.29;102743.53;5076686;28;20332;-85
2021/03/17 06:03:54;;;;;;;;;;;;;;;13.49;50.54;102743.22;5076045;28;19970;-87
2021/03/17 06:06:19;;;;;;;;;;;;;;;13.81;49.31;102739.53;5075641;28;19970;-85
2021/03/17 06:08:46;;;;;;;;;;;;;;;13.96;48.83;102745.44;5075451;28;19944;-84
2021/03/17 06:11:15;;;;;;;;;;;;;;;13.23;50.73;102757.53;5076940;28;19916;-86
2021/03/17 06:13:43;;;;;;;;;;;;;;;12.97;51.14;102759.16;5077622;28;20429;-86
2021/03/17 06:16:08;;;;;;;;;;;;;;;12.52;52.76;102764.84;5076402;28;19916;-84
2021/03/17 06:18:35;;;;;;;;;;;;;;;12.77;51.82;102760.56;5074327;28;20470;-85
2021/03/17 06:21:03;;;;;;;;;;;;;;;12.71;51.82;102759.81;5073225;28;21328;-83
2021/03/17 06:23:28;;;;;;;;;;;;;;;12.38;52.39;102768.78;5076374;28;19917;-84
2021/03/17 06:25:56;;;;;;;;;;;;;;;12.31;52.47;102764.44;5077220;28;20384;-84
2021/03/17 06:28:21;;;;;;;;;;;;;;;12.92;51.03;102763.78;5074584;28;19927;-83
2021/03/17 06:30:47;;;;;;;;;;;;;;;12.38;51.63;102755.22;5073911;28;19917;-82
2021/03/17 06:33:12;;;;;;;;;;;;;;;12.82;50.43;102743.22;5073970;28;19916;-85
2021/03/17 06:35:37;;;;;;;;;;;;;;;12.26;51.96;102750.09;5073513;28;20373;-85
2021/03/17 06:38:03;;;;;;;;;;;;;;;12.75;50.80;102756.09;5073296;28;19920;-84
2021/03/17 06:40:28;;;;;;;;;;;;;;;13.27;49.43;102745.63;5072969;28;20312;-84
2021/03/17 06:42:55;;;;;;;;;;;;;;;13.63;48.53;102749.16;5073925;28;19920;-88
2021/03/17 06:45:31;;;;;;;;;;;;;;;13.91;48.18;102747.41;5074629;28;19917;-85
2021/03/17 06:47:56;;;;;;;;;;;;;;;13.49;48.78;102754.09;5065615;28;20011;-85
2021/03/17 06:50:27;;;;;;;;;;;;;;;13.64;48.38;102745.47;5054372;28;19916;-86
2021/03/17 06:52:52;;;;;;;;;;;;;;;13.88;48.01;102762.00;5055302;28;20004;-87
2021/03/17 06:55:19;;;;;;;;;;;;;;;13.20;48.73;102768.50;5053384;28;20464;-88
2021/03/17 06:57:45;;;;;;;;;;;;;;;13.07;49.63;102779.72;5054754;28;19978;-87
2021/03/17 07:00:23;;;;;;;;;;;;;;;12.58;50.22;102786.41;5052813;28;19927;-86
2021/03/17 07:02:58;;;;;;;;;;;;;;;13.05;49.61;102792.44;5052398;28;20106;-89
2021/03/17 07:05:40;;;;;;;;;;;;;;;12.93;50.18;102790.91;5052916;28;19924;-84
2021/03/17 07:08:07;;;;;;;;;;;;;;;13.31;48.77;102796.25;5052406;28;19917;-84
2021/03/17 07:10:37;;;;;;;;;;;;;;;13.24;49.24;102803.69;5053365;28;20020;-85
2021/03/17 07:13:04;;;;;;;;;;;;;;;13.03;50.36;102804.25;5052465;28;19917;-84
2021/03/17 07:15:29;;;;;;;;;;;;;;;13.70;48.89;102793.38;5052323;28;19917;-85
2021/03/17 07:18:13;;;;;;;;;;;;;;;13.46;48.70;102795.84;5053179;28;19966;-86
2021/03/17 07:20:41;;;;;;;;;;;;;;;13.08;49.59;102819.50;5052699;28;19925;-87
2021/03/17 07:23:25;;;;;;;;;;;;;;;13.80;48.60;102815.75;5052320;28;19917;-89
2021/03/17 07:26:04;;;;;;;;;;;;;;;12.99;49.84;102824.31;5051900;28;19917;-87
2021/03/17 07:28:50;;;;;;;;;;;;;;;12.74;50.20;102833.06;5055748;28;19932;-86
2021/03/17 07:31:17;;;;;;;;;;;;;;;12.36;49.69;102854.78;5062139;28;19975;-86
2021/03/17 07:33:42;;;;;;;;;;;;;;;12.59;50.04;102853.34;5055671;28;20466;-87
2021/03/17 07:36:07;;;;;;;;;;;;;;;12.45;50.23;102841.94;5029874;28;20000;-88
2021/03/17 07:38:33;;;;;;;;;;;;;;;12.33;50.56;102841.28;5046864;28;19971;-87
2021/03/17 07:40:58;;;;;;;;;;;;;;;12.39;50.07;102835.72;5032045;28;19960;-85
2021/03/17 07:43:26;;;;;;;;;;;;;;;12.89;48.89;102842.66;5031931;28;20323;-89
2021/03/17 07:45:51;;;;;;;;;;;;;;;13.21;49.12;102830.06;5031513;28;19917;-87
2021/03/17 07:48:17;;;;;;;;;;;;;;;12.62;49.37;102836.09;5034752;28;19924;-88
2021/03/17 07:50:43;;;;;;;;;;;;;;;12.66;49.43;102846.84;5053388;28;20299;-86
2021/03/17 07:53:10;;;;;;;;;;;;;;;12.39;50.99;102849.31;5035350;28;20008;-88
2021/03/17 07:55:38;;;;;;;;;;;;;;;12.79;50.55;102842.00;5033220;28;19917;-86
2021/03/17 07:58:03;;;;;;;;;;;;;;;13.26;49.25;102849.88;5033996;28;20042;-87
2021/03/17 08:00:29;;;;;;;;;;;;;;;13.26;48.64;102849.88;5056397;28;20499;-87
2021/03/17 08:02:55;;;;;;;;;;;;;;;13.39;47.91;102855.88;5072331;28;20029;-88
2021/03/17 08:05:21;;;;;;;;;;;;;;;12.99;48.58;102857.81;5072437;28;19917;-88
2021/03/17 08:07:47;;;;;;;;;;;;;;;12.50;50.37;102859.00;5072333;28;20058;-88
2021/03/17 08:10:13;;;;;;;;;;;;;;;12.85;49.65;102855.44;5054391;28;19917;-86
2021/03/17 08:12:40;;;;;;;;;;;;;;;13.01;49.75;102864.06;5032648;28;20013;-87
2021/03/17 08:15:06;;;;;;;;;;;;;;;12.47;51.55;102859.97;5048600;28;19928;-90
2021/03/17 08:17:33;;;;;;;;;;;;;;;13.69;49.10;102856.84;5032964;28;19921;-89
2021/03/17 08:20:13;;;;;;;;;;;;;;;13.09;50.08;102861.19;5031885;28;20004;-88
2021/03/17 08:22:39;;;;;;;;;;;;;;;13.32;49.67;102866.00;5031858;28;20279;-88
2021/03/17 08:25:04;;;;;;;;;;;;;;;13.52;48.49;102860.06;5033499;28;19913;-86
2021/03/17 08:27:30;;;;;;;;;;;;;;;13.26;49.17;102858.03;5031670;28;19939;-87
2021/03/17 08:30:05;;;;;;;;;;;;;;;13.75;48.66;102867.59;5031722;28;19994;-89
2021/03/17 08:32:49;;;;;;;;;;;;;;;13.50;48.78;102874.63;5032123;28;19924;-87
2021/03/17 08:35:14;;;;;;;;;;;;;;;13.92;47.97;102871.63;5031218;28;19932;-85
2021/03/17 08:37:57;;;;;;;;;;;;;;;14.45;46.02;102865.50;5031086;28;19917;-86
2021/03/17 08:40:28;;;;;;;;;;;;;;;14.18;47.21;102873.59;5041257;28;19964;-88
2021/03/17 08:42:54;;;;;;;;;;;;;;;14.24;47.29;102872.50;5065228;28;19927;-83
2021/03/17 08:45:20;;;;;;;;;;;;;;;13.62;47.76;102872.47;5071324;28;19916;-88
2021/03/17 08:47:46;;;;;;;;;;;;;;;13.46;48.47;102877.41;5071146;28;20358;-86
2021/03/17 08:50:15;;;;;;;;;;;;;;;13.12;48.96;102877.41;5071749;28;19932;-86
2021/03/17 08:52:42;;;;;;;;;;;;;;;14.25;46.93;102867.03;5071598;28;19959;-86
2021/03/17 08:55:09;;;;;;;;;;;;;;;14.61;45.35;102860.47;5072669;28;20015;-86
2021/03/17 08:57:52;;;;;;;;;;;;;;;13.36;48.57;102854.16;5072392;28;19932;-86
2021/03/17 09:00:38;;;;;;;;;;;;;;;13.79;46.65;102863.81;5071274;28;20378;-86
2021/03/17 09:03:03;;;;;;;;;;;;;;;13.57;47.91;102863.56;5067279;28;19997;-86
2021/03/17 09:05:29;;;;;;;;;;;;;;;13.67;47.38;102861.44;5072347;28;20014;-85
2021/03/17 09:08:08;;;;;;;;;;;;;;;12.77;49.42;102863.78;5065261;28;20013;-85
2021/03/17 09:10:39;;;;;;;;;;;;;;;13.42;48.30;102878.47;5055269;28;19960;-85
2021/03/17 09:13:05;;;;;;;;;;;;;;;13.08;49.08;102875.69;5068631;28;20286;-86
2021/03/17 09:15:41;;;;;;;;;;;;;;;13.59;48.86;102879.81;5050960;28;19923;-85
2021/03/17 09:18:08;;;;;;;;;;;;;;;13.30;49.39;102879.66;5051350;28;19920;-84
2021/03/17 09:20:47;;;;;;;;;;;;;;;14.67;46.71;102883.00;5050846;28;19921;-85
2021/03/17 09:23:22;;;;;;;;;;;;;;;14.48;47.38;102884.47;5070799;28;19932;-85
2021/03/17 09:25:52;;;;;;;;;;;;;;;14.14;47.12;102883.66;5053546;28;19974;-86
2021/03/17 09:28:17;;;;;;;;;;;;;;;13.43;49.03;102891.09;5048199;28;20045;-84
2021/03/17 09:30:45;;;;;;;;;;;;;;;13.27;49.24;102892.41;5053879;28;20039;-88
2021/03/17 09:33:12;;;;;;;;;;;;;;;13.00;49.52;102878.63;5054848;28;20338;-86
2021/03/17 09:35:38;;;;;;;;;;;;;;;14.21;47.87;102878.06;5056852;28;20378;-84
2021/03/17 09:38:08;;;;;;;;;;;;;;;13.57;47.71;102889.84;5058109;28;19920;-85
2021/03/17 09:40:35;;;;;;;;;;;;;;;13.80;47.56;102887.38;5072495;28;19974;-85
2021/03/17 09:43:00;;;;;;;;;;;;;;;13.92;47.22;102893.38;5073581;28;19917;-85
2021/03/17 09:45:25;;;;;;;;;;;;;;;13.49;48.22;102889.16;5071921;28;19916;-85
2021/03/17 09:47:54;;;;;;;;;;;;;;;14.08;46.78;102864.78;5072112;28;19916;-85
2021/03/17 09:50:20;;;;;;;;;;;;;;;13.58;48.59;102859.88;5073037;28;20370;-85
2021/03/17 09:52:45;;;;;;;;;;;;;;;14.14;48.40;102863.72;5071701;28;19924;-84
2021/03/17 09:55:25;;;;;;;;;;;;;;;14.21;48.74;102869.88;5071522;28;19916;-85
2021/03/17 09:58:04;;;;;;;;;;;;;;;13.95;48.52;102872.44;5074098;28;19916;-86
2021/03/17 10:00:30;;;;;;;;;;;;;;;13.92;48.98;102885.22;5073487;28;19979;-84
2021/03/17 10:03:08;;;;;;;;;;;;;;;14.62;48.26;102890.41;5074930;28;19923;-84
2021/03/17 10:05:34;;;;;;;;;;;;;;;13.37;50.31;102882.22;5073559;28;19923;-84
2021/03/17 10:07:59;;;;;;;;;;;;;;;13.57;49.96;102876.25;5074591;28;20019;-84
2021/03/17 10:10:25;;;;;;;;;;;;;;;14.20;49.29;102870.81;5073671;28;19917;-84
2021/03/17 10:12:51;;;;;;;;;;;;;;;14.26;49.38;102876.06;5073948;28;19917;-85
2021/03/17 10:15:18;;;;;;;;;;;;;;;14.56;48.58;102873.34;5074365;28;19916;-85
2021/03/17 10:17:44;;;;;;;;;;;;;;;15.72;46.75;102862.13;5073246;28;19925;-85
2021/03/17 10:20:17;;;;;;;;;;;;;;;14.85;46.77;102858.78;5073425;28;20262;-85
2021/03/17 10:22:43;;;;;;;;;;;;;;;14.13;48.85;102862.84;5073322;28;19919;-85
2021/03/17 10:25:10;;;;;;;;;;;;;;;13.94;50.12;102859.75;5074728;28;19924;-85
2021/03/17 10:27:37;;;;;;;;;;;;;;;14.38;49.47;102859.34;5074780;28;19921;-85
2021/03/17 10:30:13;;;;;;;;;;;;;;;14.89;48.84;102864.06;5074502;28;20058;-85
2021/03/17 10:32:40;;;;;;;;;;;;;;;14.41;49.41;102870.13;5073091;28;19959;-85
2021/03/17 10:35:06;;;;;;;;;;;;;;;14.85;48.83;102862.38;5074108;28;19986;-85
2021/03/17 10:37:32;;;;;;;;;;;;;;;14.38;48.88;102858.47;5073174;28;20285;-84
2021/03/17 10:40:04;;;;;;;;;;;;;;;14.41;49.18;102864.69;5072889;28;19916;-85
2021/03/17 10:42:29;;;;;;;;;;;;;;;14.88;48.29;102858.69;5072990;28;20309;-84
2021/03/17 10:45:01;;;;;;;;;;;;;;;15.11;47.39;102862.44;5074108;28;19923;-84
2021/03/17 10:47:26;;;;;;;;;;;;;;;14.93;46.55;102853.97;5072766;28;19923;-84
2021/03/17 10:49:51;;;;;;;;;;;;;;;14.35;47.11;102854.00;5072615;28;19996;-85
2021/03/17 10:52:16;;;;;;;;;;;;;;;13.91;48.78;102858.97;5073726;28;19920;-84
2021/03/17 10:54:43;;;;;;;;;;;;;;;14.80;47.99;102858.94;5073650;28;19924;-83
2021/03/17 10:57:09;;;;;;;;;;;;;;;15.03;46.29;102857.28;5073778;28;19916;-84
2021/03/17 10:59:35;;;;;;;;;;;;;;;14.04;47.84;102854.03;5073642;28;19921;-84
2021/03/17 11:02:36;;;;;;;;;;;;;;;14.46;47.63;102867.28;5072530;28;19917;-84
2021/03/17 11:05:06;;;;;;;;;;;;;;;14.92;47.39;102854.03;5054548;28;19916;-84
2021/03/17 11:07:50;;;;;;;;;;;;;;;14.41;48.20;102856.53;5068598;28;19916;-85
2021/03/17 11:10:33;;;;;;;;;;;;;;;15.04;46.72;102856.34;5073383;28;19917;-84
2021/03/17 11:13:00;;;;;;;;;;;;;;;15.16;46.02;102855.91;5071864;28;19920;-85
2021/03/17 11:15:26;;;;;;;;;;;;;;;15.10;45.59;102853.41;5073286;28;20403;-84
2021/03/17 11:17:52;;;;;;;;;;;;;;;14.79;46.24;102854.41;5071383;28;20394;-84
2021/03/17 11:20:18;;;;;;;;;;;;;;;14.36;46.90;102855.78;5072267;28;19920;-84
2021/03/17 11:22:43;;;;;;;;;;;;;;;15.36;45.10;102857.03;5072116;28;20027;-83
2021/03/17 11:25:09;;;;;;;;;;;;;;;14.65;45.78;102854.00;5071906;28;19917;-84
2021/03/17 11:27:34;;;;;;;;;;;;;;;14.88;44.95;102847.78;5071957;28;19920;-85
2021/03/17 11:29:59;;;;;;;;;;;;;;;14.96;45.10;102850.25;5072489;28;19920;-86
2021/03/17 11:32:28;;;;;;;;;;;;;;;14.81;45.22;102841.66;5073427;28;19917;-84
2021/03/17 11:34:53;;;;;;;;;;;;;;;14.81;44.84;102846.19;5072148;28;19920;-84
2021/03/17 11:37:19;;;;;;;;;;;;;;;14.42;46.47;102850.16;5072167;28;19943;-84
2021/03/17 11:39:44;;;;;;;;;;;;;;;14.43;45.48;102860.13;5072174;28;20421;-85
2021/03/17 11:42:09;;;;;;;;;;;;;;;14.22;46.47;102858.03;5072059;28;19939;-85
2021/03/17 11:44:34;;;;;;;;;;;;;;;14.77;45.52;102859.03;5071575;28;20317;-85
2021/03/17 11:47:00;;;;;;;;;;;;;;;15.13;45.17;102864.19;5071788;28;19925;-87
2021/03/17 11:49:25;;;;;;;;;;;;;;;14.92;44.66;102856.75;5072029;28;19920;-86
2021/03/17 11:51:50;;;;;;;;;;;;;;;14.94;44.00;102857.59;5072122;28;20369;-85
2021/03/17 11:54:15;;;;;;;;;;;;;;;14.98;44.06;102848.38;5072089;28;19917;-85
2021/03/17 11:56:41;;;;;;;;;;;;;;;15.45;44.03;102845.81;5071767;28;19921;-84
2021/03/17 11:59:06;;;;;;;;;;;;;;;16.77;41.73;102833.44;5071535;28;19921;-87
2021/03/17 12:01:31;;;;;;;;;;;;;;;15.97;41.96;102839.38;5071551;28;20396;-85
2021/03/17 12:03:56;;;;;;;;;;;;;;;16.53;40.97;102844.44;5071496;28;19923;-85
2021/03/17 12:06:22;;;;;;;;;;;;;;;16.94;40.48;102833.66;5071952;28;19939;-84
2021/03/17 12:08:47;;;;;;;;;;;;;;;16.01;41.95;102841.03;5073124;28;19993;-85
2021/03/17 12:11:13;;;;;;;;;;;;;;;15.53;42.58;102834.59;5072153;28;19962;-86
2021/03/17 12:13:38;;;;;;;;;;;;;;;15.83;41.51;102842.63;5072683;28;19959;-86
2021/03/17 12:16:03;;;;;;;;;;;;;;;15.73;42.78;102840.22;5071606;28;19916;-87
2021/03/17 12:18:28;;;;;;;;;;;;;;;16.22;42.40;102829.28;5072014;28;19970;-86
2021/03/17 12:20:54;;;;;;;;;;;;;;;15.40;44.04;102837.78;5072203;28;19923;-85
2021/03/17 12:23:19;;;;;;;;;;;;;;;15.82;43.20;102840.84;5073037;28;19920;-85
2021/03/17 12:25:45;;;;;;;;;;;;;;;15.90;43.46;102836.88;5075188;28;20302;-85
2021/03/17 12:28:11;;;;;;;;;;;;;;;16.76;42.01;102820.75;5076895;28;19974;-88
2021/03/17 12:30:36;;;;;;;;;;;;;;;16.62;42.41;102834.94;5073736;28;19920;-85
2021/03/17 12:33:02;;;;;;;;;;;;;;;16.34;42.12;102832.47;5076027;28;19917;-86
2021/03/17 12:35:27;;;;;;;;;;;;;;;15.89;41.67;102835.09;5075632;28;19917;-84
2021/03/17 12:37:53;;;;;;;;;;;;;;;14.83;43.51;102830.69;5074996;28;19921;-86